Time;durP1;ratioP1;P1;durP2;ratioP2;P2;SDS_P1;SDS_P2;PMS_P1;PMS_P2;Temp;Humidity;BMP_temperature;BMP_pressure;BME280_temperature;BME280_humidity;BME280_pressure;Samples;Min_cycle;Max_cycle;Signal;HPM_P1;HPM_P2
2023/05/06 00:00:22;;;;;;;4.50;4.10;;;18.40;84.00;;;;;;6027990;23;20485;-48
2023/05/06 00:02:51;;;;;;;4.23;3.83;;;18.40;84.10;;;;;;6028719;23;20469;-48
2023/05/06 00:05:20;;;;;;;3.90;3.43;;;18.40;84.10;;;;;;6028315;23;20402;-48
2023/05/06 00:07:51;;;;;;;5.77;4.27;;;18.40;84.10;;;;;;6028162;23;20441;-46
2023/05/06 00:10:20;;;;;;;4.50;3.13;;;18.30;83.80;;;;;;6028922;23;20393;-47
2023/05/06 00:12:48;;;;;;;4.47;3.90;;;18.30;83.90;;;;;;6030338;23;20438;-48
2023/05/06 00:15:24;;;;;;;5.33;4.53;;;18.40;84.00;;;;;;6028171;23;20792;-48
2023/05/06 00:17:55;;;;;;;4.63;3.27;;;18.40;83.70;;;;;;6028596;23;20437;-47
2023/05/06 00:20:24;;;;;;;4.37;3.97;;;18.30;83.90;;;;;;6029218;23;20747;-47
2023/05/06 00:22:53;;;;;;;4.60;4.20;;;18.30;83.80;;;;;;6027831;23;20456;-48
2023/05/06 00:25:21;;;;;;;4.27;3.87;;;18.30;83.70;;;;;;6027075;23;20386;-46
2023/05/06 00:27:50;;;;;;;3.40;3.10;;;18.30;83.60;;;;;;6028899;23;20533;-47
2023/05/06 00:30:21;;;;;;;3.50;3.20;;;18.30;83.60;;;;;;6028668;23;20375;-48
2023/05/06 00:32:49;;;;;;;5.40;3.53;;;18.30;83.60;;;;;;6028130;23;20433;-46
2023/05/06 00:35:18;;;;;;;4.20;3.80;;;18.30;83.50;;;;;;6027145;23;20413;-48
2023/05/06 00:37:47;;;;;;;3.77;3.40;;;18.30;83.50;;;;;;6028036;23;20756;-47
2023/05/06 00:40:15;;;;;;;4.03;3.57;;;18.30;83.40;;;;;;6028743;23;20382;-46
2023/05/06 00:42:44;;;;;;;2.70;2.10;;;18.30;83.20;;;;;;6028489;23;20450;-46
2023/05/06 00:45:14;;;;;;;2.80;2.53;;;18.30;83.60;;;;;;6027183;23;20397;-48
2023/05/06 00:47:44;;;;;;;2.27;2.07;;;18.30;83.70;;;;;;6028622;23;20524;-47
2023/05/06 00:50:15;;;;;;;4.00;3.13;;;18.20;83.60;;;;;;6028872;23;20389;-48
2023/05/06 00:52:44;;;;;;;3.50;3.17;;;18.30;83.50;;;;;;6028589;23;20438;-48
2023/05/06 00:55:13;;;;;;;3.43;3.13;;;18.30;83.10;;;;;;6028678;23;20452;-48
2023/05/06 00:58:00;;;;;;;3.03;2.73;;;18.20;82.90;;;;;;6028561;23;20516;-46
2023/05/06 01:00:51;;;;;;;3.57;3.00;;;18.20;82.90;;;;;;6028239;23;20743;-47
2023/05/06 01:03:21;;;;;;;4.50;4.00;;;18.30;83.00;;;;;;6028893;23;20483;-48
2023/05/06 01:05:58;;;;;;;4.27;3.87;;;18.30;82.90;;;;;;6027666;23;20682;-48
2023/05/06 01:08:34;;;;;;;2.93;2.50;;;18.20;82.60;;;;;;6027610;23;20944;-48
2023/05/06 01:11:09;;;;;;;3.57;2.73;;;18.20;82.70;;;;;;6029616;23;20396;-47
2023/05/06 01:13:46;;;;;;;3.63;3.20;;;18.20;82.40;;;;;;6029288;23;20472;-48
2023/05/06 01:16:17;;;;;;;4.37;3.50;;;18.20;82.40;;;;;;6029087;23;21108;-48
2023/05/06 01:18:49;;;;;;;2.40;2.20;;;18.20;82.40;;;;;;6029576;23;20496;-47
2023/05/06 01:21:20;;;;;;;4.73;3.53;;;18.20;82.60;;;;;;6030056;23;20432;-49
2023/05/06 01:23:58;;;;;;;3.63;3.10;;;18.20;82.30;;;;;;6005053;23;20445;-48
2023/05/06 01:26:27;;;;;;;3.37;3.07;;;18.20;82.20;;;;;;6029893;23;20444;-46
2023/05/06 01:28:58;;;;;;;3.03;2.70;;;18.20;82.40;;;;;;6029789;23;20409;-47
2023/05/06 01:31:34;;;;;;;4.60;3.20;;;18.10;82.00;;;;;;6055640;23;20408;-47
2023/05/06 01:34:09;;;;;;;3.00;2.67;;;18.20;82.10;;;;;;6030496;23;20759;-47
2023/05/06 01:36:45;;;;;;;2.90;2.53;;;18.20;82.10;;;;;;6029251;23;20528;-48
2023/05/06 01:39:18;;;;;;;2.63;2.40;;;18.20;82.10;;;;;;6028790;23;20497;-48
2023/05/06 01:41:50;;;;;;;3.57;3.27;;;18.10;82.10;;;;;;6028706;23;20778;-47
2023/05/06 01:44:23;;;;;;;3.40;2.90;;;18.20;82.10;;;;;;6028991;23;20421;-47
2023/05/06 01:46:53;;;;;;;2.50;2.30;;;18.10;82.00;;;;;;6029162;23;20839;-47
2023/05/06 01:49:23;;;;;;;2.90;2.40;;;18.10;82.00;;;;;;6052817;23;20693;-46
2023/05/06 01:51:53;;;;;;;3.00;2.70;;;18.10;82.10;;;;;;6005581;23;20402;-46
2023/05/06 01:54:25;;;;;;;2.73;2.30;;;18.10;81.90;;;;;;6030096;23;20413;-48
2023/05/06 01:56:53;;;;;;;3.67;2.53;;;18.10;81.90;;;;;;6029601;23;20425;-47
2023/05/06 01:59:22;;;;;;;2.73;2.47;;;18.10;81.80;;;;;;6029469;23;20437;-47
2023/05/06 02:01:52;;;;;;;2.87;2.20;;;18.10;81.70;;;;;;6028185;23;20448;-47
2023/05/06 02:04:21;;;;;;;4.10;2.87;;;18.10;81.50;;;;;;6029561;23;20930;-47
2023/05/06 02:06:49;;;;;;;3.23;2.50;;;18.10;81.50;;;;;;6053196;23;20471;-48
2023/05/06 02:09:19;;;;;;;3.00;2.67;;;18.10;81.70;;;;;;6029088;23;20476;-47
2023/05/06 02:11:55;;;;;;;3.30;2.63;;;18.10;81.70;;;;;;6051958;23;20777;-48
2023/05/06 02:14:25;;;;;;;2.77;2.33;;;18.10;81.40;;;;;;6030199;23;20382;-46
2023/05/06 02:16:55;;;;;;;3.17;2.27;;;18.10;81.40;;;;;;6029152;23;20418;-48
2023/05/06 02:19:23;;;;;;;3.20;2.57;;;18.10;81.50;;;;;;6029962;23;20396;-47
2023/05/06 02:21:55;;;;;;;3.17;2.03;;;18.00;81.20;;;;;;6028712;23;20422;-46
2023/05/06 02:24:25;;;;;;;2.93;2.20;;;18.10;81.50;;;;;;6054232;23;20468;-48
2023/05/06 02:26:55;;;;;;;2.50;2.30;;;18.00;81.00;;;;;;6004167;23;20448;-47
2023/05/06 02:29:23;;;;;;;4.63;2.03;;;18.00;81.20;;;;;;6031449;23;20417;-48
2023/05/06 02:31:52;;;;;;;2.07;1.87;;;18.00;81.30;;;;;;6028513;23;20788;-48
2023/05/06 02:34:21;;;;;;;2.60;2.10;;;18.00;81.10;;;;;;6030101;23;20718;-48
2023/05/06 02:36:49;;;;;;;3.77;2.17;;;18.00;81.20;;;;;;6027964;23;20532;-48
2023/05/06 02:39:18;;;;;;;3.33;2.90;;;18.00;81.10;;;;;;6029094;23;20390;-47
2023/05/06 02:41:46;;;;;;;3.03;2.10;;;18.00;81.00;;;;;;6028695;23;20436;-48
2023/05/06 02:44:16;;;;;;;3.87;2.60;;;18.00;81.00;;;;;;6029458;23;20806;-47
2023/05/06 02:46:45;;;;;;;3.30;2.23;;;18.00;80.90;;;;;;6027424;23;20441;-48
2023/05/06 02:49:13;;;;;;;2.63;2.27;;;18.00;80.80;;;;;;6029451;23;20935;-48
2023/05/06 02:51:42;;;;;;;2.37;2.13;;;18.00;80.80;;;;;;6029327;23;20398;-46
2023/05/06 02:54:10;;;;;;;3.00;2.70;;;17.90;80.60;;;;;;6029003;23;20370;-48
2023/05/06 02:56:41;;;;;;;2.20;2.00;;;17.90;80.60;;;;;;6029517;23;20416;-48
2023/05/06 02:59:09;;;;;;;2.40;2.13;;;18.00;80.80;;;;;;6029548;23;20383;-47
2023/05/06 03:01:39;;;;;;;3.90;2.20;;;17.90;80.80;;;;;;6028727;23;20702;-47
2023/05/06 03:04:08;;;;;;;2.67;2.40;;;17.90;80.80;;;;;;6029227;23;20422;-47
2023/05/06 03:06:37;;;;;;;2.30;2.10;;;17.90;80.60;;;;;;6027225;23;20532;-47
2023/05/06 03:09:05;;;;;;;3.00;2.30;;;17.90;80.60;;;;;;6028675;23;20437;-47
2023/05/06 03:11:34;;;;;;;2.40;1.90;;;17.90;80.40;;;;;;6029558;23;20951;-48
2023/05/06 03:14:05;;;;;;;2.07;1.80;;;17.90;80.50;;;;;;6029195;23;20731;-47
2023/05/06 03:16:34;;;;;;;2.37;2.00;;;17.90;80.50;;;;;;6027431;23;20987;-48
2023/05/06 03:19:05;;;;;;;3.63;2.40;;;17.90;80.50;;;;;;6029682;23;20398;-48
2023/05/06 03:21:34;;;;;;;2.40;2.10;;;17.90;80.30;;;;;;6027216;23;20468;-46
2023/05/06 03:24:04;;;;;;;2.50;2.07;;;17.90;80.50;;;;;;6028968;23;20476;-47
2023/05/06 03:26:32;;;;;;;3.30;1.73;;;17.90;80.60;;;;;;6029160;23;20455;-47
2023/05/06 03:29:01;;;;;;;2.50;2.30;;;17.90;80.50;;;;;;6029906;23;20402;-47
2023/05/06 03:31:31;;;;;;;2.23;2.03;;;17.90;80.50;;;;;;6027292;23;20433;-47
2023/05/06 03:34:01;;;;;;;3.43;2.13;;;17.80;80.50;;;;;;6029260;23;20382;-47
2023/05/06 03:36:32;;;;;;;2.33;1.97;;;17.80;80.30;;;;;;6024983;23;20529;-48
2023/05/06 03:39:01;;;;;;;2.30;1.90;;;17.80;80.40;;;;;;6029459;23;20473;-48
2023/05/06 03:41:32;;;;;;;2.13;1.50;;;17.80;80.30;;;;;;6027713;23;20897;-47
2023/05/06 03:44:01;;;;;;;2.97;2.20;;;17.80;80.40;;;;;;6029787;23;20434;-47
2023/05/06 03:46:29;;;;;;;3.33;2.40;;;17.80;80.40;;;;;;6027159;23;20477;-47
2023/05/06 03:48:59;;;;;;;2.20;1.80;;;17.80;80.30;;;;;;6030094;23;20773;-48
2023/05/06 03:51:28;;;;;;;2.27;1.97;;;17.80;80.40;;;;;;6028391;23;20386;-47
2023/05/06 03:53:58;;;;;;;2.80;2.00;;;17.80;80.00;;;;;;6027990;23;20905;-47
2023/05/06 03:56:27;;;;;;;2.00;1.67;;;17.80;80.40;;;;;;6029897;23;20441;-47
2023/05/06 03:58:57;;;;;;;2.53;2.20;;;17.80;80.50;;;;;;6028742;23;20412;-46
2023/05/06 04:01:27;;;;;;;2.63;2.20;;;17.80;80.10;;;;;;6027553;23;20495;-48
2023/05/06 04:03:55;;;;;;;2.20;1.80;;;17.80;80.30;;;;;;6028639;23;20406;-47
2023/05/06 04:06:26;;;;;;;3.37;2.20;;;17.80;80.30;;;;;;6029242;23;20422;-47
2023/05/06 04:08:55;;;;;;;3.50;2.20;;;17.80;80.40;;;;;;6027942;23;20461;-48
2023/05/06 04:11:25;;;;;;;1.90;1.63;;;17.70;80.10;;;;;;6028859;23;20402;-47
2023/05/06 04:13:58;;;;;;;1.90;1.50;;;17.70;80.10;;;;;;6030059;23;20439;-47
2023/05/06 04:16:27;;;;;;;2.30;1.93;;;17.70;80.10;;;;;;6027254;23;20452;-47
2023/05/06 04:18:56;;;;;;;2.03;1.43;;;17.80;80.00;;;;;;6029748;23;20456;-48
2023/05/06 04:21:25;;;;;;;3.20;2.53;;;17.70;80.10;;;;;;6028597;23;20401;-47
2023/05/06 04:24:01;;;;;;;2.67;1.90;;;17.70;80.10;;;;;;6028841;23;20409;-48
2023/05/06 04:26:38;;;;;;;2.30;2.07;;;17.70;80.00;;;;;;6027775;23;20445;-47
2023/05/06 04:29:07;;;;;;;2.03;1.70;;;17.70;80.30;;;;;;6029801;23;20469;-48
2023/05/06 04:31:43;;;;;;;2.77;1.50;;;17.70;80.50;;;;;;6027867;23;20770;-48
2023/05/06 04:34:14;;;;;;;2.60;1.63;;;17.70;80.50;;;;;;6053312;23;20912;-48
2023/05/06 04:36:43;;;;;;;1.80;1.40;;;17.70;80.30;;;;;;6026930;23;20508;-48
2023/05/06 04:39:27;;;;;;;2.60;1.70;;;17.60;80.30;;;;;;6029214;23;20456;-47
2023/05/06 04:41:58;;;;;;;3.50;1.93;;;17.70;81.70;;;;;;6027500;23;20812;-47
2023/05/06 04:44:35;;;;;;;2.03;1.50;;;17.70;81.50;;;;;;6054416;23;20920;-48
2023/05/06 04:47:07;;;;;;;2.13;1.67;;;17.70;80.40;;;;;;6029149;23;20476;-47
2023/05/06 04:49:36;;;;;;;1.80;1.43;;;17.60;80.10;;;;;;6032216;23;20456;-47
2023/05/06 04:52:06;;;;;;;2.93;1.93;;;17.70;80.50;;;;;;6030877;23;20445;-47
2023/05/06 04:54:35;;;;;;;2.10;1.63;;;17.60;80.30;;;;;;6032028;23;20931;-47
2023/05/06 04:57:06;;;;;;;2.33;1.77;;;17.60;80.40;;;;;;6030941;23;20422;-48
2023/05/06 04:59:37;;;;;;;1.90;1.63;;;17.60;80.20;;;;;;6031802;23;20742;-47
2023/05/06 05:02:05;;;;;;;2.03;1.70;;;17.60;80.30;;;;;;6031689;23;20964;-48
2023/05/06 05:04:34;;;;;;;2.00;1.70;;;17.60;80.20;;;;;;6031680;23;20889;-48
2023/05/06 05:07:03;;;;;;;2.00;1.53;;;17.60;80.50;;;;;;6030724;23;20449;-48
2023/05/06 05:09:32;;;;;;;2.70;1.90;;;17.60;80.50;;;;;;6031802;23;20944;-48
2023/05/06 05:12:02;;;;;;;1.77;1.47;;;17.60;80.50;;;;;;6030067;23;20437;-47
2023/05/06 05:14:35;;;;;;;2.83;1.50;;;17.60;80.60;;;;;;6031274;23;20389;-47
2023/05/06 05:17:04;;;;;;;2.20;2.00;;;17.60;80.60;;;;;;6030663;23;20445;-47
2023/05/06 05:19:33;;;;;;;2.30;2.03;;;17.60;80.60;;;;;;6031947;23;20428;-46
2023/05/06 05:22:02;;;;;;;2.97;1.50;;;17.60;80.80;;;;;;6030489;23;20441;-48
2023/05/06 05:24:33;;;;;;;2.00;1.47;;;17.60;80.60;;;;;;6031500;23;20389;-46
2023/05/06 05:27:02;;;;;;;2.00;1.60;;;17.60;80.60;;;;;;6031337;23;20449;-47
2023/05/06 05:29:30;;;;;;;1.83;1.50;;;17.60;81.00;;;;;;6031844;23;20401;-46
2023/05/06 05:32:02;;;;;;;1.97;1.77;;;17.60;80.70;;;;;;6030405;23;20437;-47
2023/05/06 05:34:31;;;;;;;2.20;1.60;;;17.60;80.70;;;;;;6031663;23;20392;-46
2023/05/06 05:37:01;;;;;;;2.20;1.80;;;17.60;80.80;;;;;;6029813;23;20552;-47
2023/05/06 05:39:31;;;;;;;1.70;1.60;;;17.60;80.50;;;;;;6033510;23;20764;-48
2023/05/06 05:42:01;;;;;;;2.20;1.77;;;17.60;80.70;;;;;;6031246;23;20917;-48
2023/05/06 05:44:30;;;;;;;1.83;1.50;;;17.60;80.80;;;;;;6030078;23;20460;-47
2023/05/06 05:47:01;;;;;;;2.40;1.60;;;17.60;80.80;;;;;;6029793;23;20442;-47
2023/05/06 05:49:31;;;;;;;2.80;1.60;;;17.60;80.80;;;;;;6031471;23;20480;-46
2023/05/06 05:51:59;;;;;;;2.80;1.53;;;17.60;80.70;;;;;;6030393;23;20943;-47
2023/05/06 05:54:31;;;;;;;3.10;1.50;;;17.60;80.60;;;;;;6030458;23;20484;-46
2023/05/06 05:57:00;;;;;;;2.93;1.50;;;17.60;80.60;;;;;;6028066;23;20504;-46
2023/05/06 05:59:30;;;;;;;3.03;1.47;;;17.60;80.60;;;;;;6028893;23;20459;-47
2023/05/06 06:02:04;;;;;;;2.13;1.60;;;17.60;80.80;;;;;;6028871;23;20390;-47
2023/05/06 06:04:33;;;;;;;2.33;1.50;;;17.60;80.80;;;;;;6030210;23;20390;-48
2023/05/06 06:07:02;;;;;;;1.80;1.40;;;17.60;80.80;;;;;;6027829;23;20446;-46
2023/05/06 06:09:35;;;;;;;2.33;1.83;;;17.60;80.90;;;;;;6029797;23;20697;-47
2023/05/06 06:12:05;;;;;;;2.33;1.60;;;17.60;81.00;;;;;;6004742;23;20413;-47
2023/05/06 06:14:36;;;;;;;2.13;1.57;;;17.60;81.00;;;;;;6054361;23;20382;-48
2023/05/06 06:17:06;;;;;;;2.23;1.50;;;17.60;81.20;;;;;;6029061;23;20963;-47
2023/05/06 06:19:35;;;;;;;2.90;2.00;;;17.60;81.00;;;;;;6029435;23;20378;-47
2023/05/06 06:22:04;;;;;;;2.87;1.60;;;17.60;80.90;;;;;;6027199;23;20496;-46
2023/05/06 06:24:35;;;;;;;2.10;1.43;;;17.60;81.00;;;;;;6029638;23;20410;-47
2023/05/06 06:27:03;;;;;;;2.23;1.50;;;17.60;81.00;;;;;;6028711;23;20525;-47
2023/05/06 06:29:33;;;;;;;1.87;1.50;;;17.60;80.90;;;;;;6001654;23;20416;-46
2023/05/06 06:32:03;;;;;;;2.23;1.30;;;17.60;80.90;;;;;;6026061;23;20468;-47
2023/05/06 06:34:33;;;;;;;1.80;1.40;;;17.60;81.00;;;;;;6026370;23;20378;-47
2023/05/06 06:37:02;;;;;;;1.80;1.20;;;17.60;80.80;;;;;;6028046;23;20421;-46
2023/05/06 06:39:33;;;;;;;2.03;1.40;;;17.50;80.80;;;;;;6029912;23;20469;-48
2023/05/06 06:42:03;;;;;;;1.83;1.20;;;17.50;80.80;;;;;;6029035;23;20423;-47
2023/05/06 06:44:38;;;;;;;1.90;1.53;;;17.50;80.60;;;;;;6029620;23;20385;-47
2023/05/06 06:47:07;;;;;;;2.17;1.20;;;17.60;80.90;;;;;;6026930;23;20445;-47
2023/05/06 06:49:38;;;;;;;2.10;1.33;;;17.60;80.90;;;;;;6029587;23;20425;-46
2023/05/06 06:52:06;;;;;;;1.57;1.27;;;17.60;82.30;;;;;;6027250;23;20445;-46
2023/05/06 06:54:37;;;;;;;2.03;1.37;;;17.60;81.10;;;;;;6026866;23;20397;-47
2023/05/06 06:57:06;;;;;;;2.10;1.43;;;17.60;81.30;;;;;;6028036;23;20568;-47
2023/05/06 06:59:35;;;;;;;1.60;1.03;;;17.60;81.30;;;;;;6053257;23;20389;-47
2023/05/06 07:02:04;;;;;;;2.13;1.30;;;17.60;81.40;;;;;;6003397;23;20772;-47
2023/05/06 07:04:32;;;;;;;1.70;1.30;;;17.60;81.20;;;;;;6028528;23;20849;-46
2023/05/06 07:07:02;;;;;;;2.13;1.57;;;17.60;81.10;;;;;;6025977;23;20437;-47
2023/05/06 07:09:31;;;;;;;1.80;1.40;;;17.60;81.20;;;;;;6028119;23;20385;-47
2023/05/06 07:12:02;;;;;;;1.50;1.00;;;17.70;81.30;;;;;;6028216;23;20446;-46
2023/05/06 07:14:31;;;;;;;2.10;1.60;;;17.60;81.00;;;;;;6028446;23;20397;-45
2023/05/06 07:17:00;;;;;;;1.50;1.20;;;17.70;81.00;;;;;;6027658;23;20448;-47
2023/05/06 07:19:30;;;;;;;2.00;1.17;;;17.70;81.10;;;;;;6027734;23;20378;-47
2023/05/06 07:21:59;;;;;;;2.60;1.13;;;17.70;78.40;;;;;;6027533;23;20398;-46
2023/05/06 07:24:29;;;;;;;11.27;2.13;;;17.60;78.20;;;;;;6028949;23;20381;-47
2023/05/06 07:26:58;;;;;;;3.10;1.37;;;17.60;76.40;;;;;;6023190;23;20457;-47
2023/05/06 07:29:27;;;;;;;3.10;2.07;;;17.70;77.50;;;;;;6026526;23;20394;-47
2023/05/06 07:37:06;;;;;;;2.80;1.13;;;17.70;78.20;;;;;;6026378;23;20384;-47
2023/05/06 07:39:36;;;;;;;3.63;1.30;;;17.70;78.40;;;;;;6049911;23;20390;-46
2023/05/06 07:42:06;;;;;;;2.90;1.00;;;17.70;78.50;;;;;;6024109;23;20446;-46
2023/05/06 07:44:35;;;;;;;2.20;1.00;;;17.80;78.70;;;;;;6029556;23;20404;-46
2023/05/06 07:47:04;;;;;;;1.90;1.27;;;17.70;78.20;;;;;;6048430;23;20445;-49
2023/05/06 07:49:36;;;;;;;5.27;1.40;;;17.70;78.40;;;;;;6027697;23;20737;-47
2023/05/06 07:52:05;;;;;;;3.90;1.20;;;17.90;77.40;;;;;;6050820;23;20817;-46
2023/05/06 07:54:33;;;;;;;3.50;1.47;;;18.10;76.30;;;;;;6029604;23;20389;-46
2023/05/06 07:57:03;;;;;;;3.60;1.53;;;18.20;76.30;;;;;;6030450;23;20428;-45
2023/05/06 07:59:32;;;;;;;4.83;1.23;;;18.20;76.50;;;;;;6030098;23;20398;-47
2023/05/06 08:02:00;;;;;;;2.77;1.33;;;18.10;76.80;;;;;;6028803;23;20438;-47
2023/05/06 08:04:29;;;;;;;2.57;1.20;;;18.00;76.90;;;;;;6030149;23;20389;-47
2023/05/06 08:06:57;;;;;;;4.20;1.70;;;18.00;77.40;;;;;;6029594;23;20642;-47
2023/05/06 08:09:26;;;;;;;3.97;1.33;;;17.90;77.60;;;;;;6031404;23;20394;-46
2023/05/06 08:11:55;;;;;;;2.20;1.00;;;17.90;78.00;;;;;;6027038;23;20452;-47
2023/05/06 08:14:25;;;;;;;2.60;1.27;;;17.90;78.10;;;;;;6030749;23;20658;-47
2023/05/06 08:16:54;;;;;;;4.80;1.40;;;17.90;78.30;;;;;;6029991;23;20421;-47
2023/05/06 08:19:23;;;;;;;2.93;1.43;;;17.90;78.40;;;;;;6029439;23;20456;-47
2023/05/06 08:21:51;;;;;;;3.97;1.10;;;17.90;78.50;;;;;;6028341;23;20445;-46
2023/05/06 08:24:20;;;;;;;3.93;1.57;;;17.90;78.50;;;;;;6029268;23;20405;-47
2023/05/06 08:26:48;;;;;;;3.90;0.90;;;17.80;78.50;;;;;;6029371;23;20429;-46
2023/05/06 08:29:17;;;;;;;2.23;1.30;;;17.80;78.60;;;;;;6031821;23;20409;-47
2023/05/06 08:31:47;;;;;;;3.90;1.17;;;17.80;78.60;;;;;;6027298;23;20441;-47
2023/05/06 08:34:17;;;;;;;2.13;1.20;;;17.80;78.70;;;;;;6030032;23;20937;-47
2023/05/06 08:36:45;;;;;;;2.33;1.30;;;17.90;79.00;;;;;;6029504;23;20422;-47
2023/05/06 08:39:14;;;;;;;2.73;1.10;;;17.90;78.60;;;;;;6027367;23;20394;-47
2023/05/06 08:41:48;;;;;;;2.20;1.10;;;17.90;78.60;;;;;;6030592;23;20831;-46
2023/05/06 08:44:18;;;;;;;1.83;0.90;;;17.90;78.70;;;;;;6029866;23;20803;-47
2023/05/06 08:46:48;;;;;;;3.00;1.50;;;17.80;78.70;;;;;;6052751;23;20967;-46
2023/05/06 08:49:17;;;;;;;2.70;1.40;;;17.80;78.80;;;;;;6030151;23;20400;-47
2023/05/06 08:51:50;;;;;;;2.07;1.20;;;17.90;78.90;;;;;;6051578;23;20948;-47
2023/05/06 08:54:19;;;;;;;2.00;0.97;;;17.80;78.90;;;;;;6029801;23;20386;-47
2023/05/06 08:56:52;;;;;;;1.53;1.03;;;17.80;78.90;;;;;;6029602;23;21022;-47
2023/05/06 08:59:25;;;;;;;3.10;1.10;;;17.90;79.10;;;;;;6029731;23;20441;-47
2023/05/06 09:01:55;;;;;;;2.90;1.07;;;17.80;79.00;;;;;;6029294;23;20783;-47
2023/05/06 09:04:24;;;;;;;2.10;1.20;;;17.80;79.00;;;;;;6029557;23;20378;-48
2023/05/06 09:06:57;;;;;;;1.63;1.00;;;17.80;79.10;;;;;;6030155;23;20484;-48
2023/05/06 09:09:26;;;;;;;1.63;0.90;;;17.80;79.10;;;;;;6029046;23;20378;-47
2023/05/06 09:11:56;;;;;;;1.63;0.80;;;17.80;79.30;;;;;;6028609;23;20452;-47
2023/05/06 09:14:25;;;;;;;1.83;1.30;;;17.80;79.30;;;;;;6031296;23;20912;-46
2023/05/06 09:16:54;;;;;;;2.40;1.00;;;17.80;79.20;;;;;;6029714;23;20409;-47
2023/05/06 09:19:24;;;;;;;1.80;1.13;;;17.80;79.30;;;;;;6029709;23;20378;-47
2023/05/06 09:21:52;;;;;;;1.83;1.20;;;17.80;79.40;;;;;;6029407;23;20524;-46
2023/05/06 09:24:21;;;;;;;2.10;1.03;;;17.80;79.40;;;;;;6028827;23;20413;-46
2023/05/06 09:26:53;;;;;;;2.97;1.17;;;17.80;79.40;;;;;;6027941;23;20418;-46
2023/05/06 09:29:22;;;;;;;2.90;1.07;;;17.80;79.40;;;;;;6028893;23;20957;-47
2023/05/06 09:31:53;;;;;;;2.00;1.07;;;17.80;79.40;;;;;;6028543;23;20464;-47
2023/05/06 09:34:23;;;;;;;1.70;0.90;;;17.80;79.30;;;;;;6054472;23;20401;-46
2023/05/06 09:36:55;;;;;;;2.40;1.10;;;17.90;79.40;;;;;;6032541;23;20969;-47
2023/05/06 09:39:26;;;;;;;2.27;1.10;;;17.80;79.30;;;;;;6030689;23;20464;-47
2023/05/06 09:41:55;;;;;;;1.73;0.97;;;17.80;79.40;;;;;;6030863;23;20456;-47
2023/05/06 09:44:26;;;;;;;2.00;0.80;;;17.80;79.50;;;;;;6054306;23;20828;-47
2023/05/06 09:46:55;;;;;;;2.37;1.07;;;17.80;79.50;;;;;;6029382;23;20425;-47
2023/05/06 09:49:26;;;;;;;1.93;0.90;;;17.80;79.50;;;;;;6031379;23;20453;-47
2023/05/06 09:51:56;;;;;;;2.30;0.80;;;17.80;79.60;;;;;;6029376;23;20413;-46
2023/05/06 09:54:25;;;;;;;2.13;0.83;;;17.80;79.70;;;;;;6032529;23;20433;-47
2023/05/06 09:56:56;;;;;;;1.90;0.97;;;17.80;79.60;;;;;;6028512;23;20473;-47
2023/05/06 09:59:29;;;;;;;1.60;1.10;;;17.80;80.20;;;;;;6054966;23;20379;-47
2023/05/06 10:01:59;;;;;;;1.97;1.00;;;17.80;79.70;;;;;;6030856;23;20378;-47
2023/05/06 10:04:30;;;;;;;2.30;1.27;;;17.80;79.80;;;;;;6053333;23;20480;-47
2023/05/06 10:07:01;;;;;;;4.53;1.20;;;17.90;79.80;;;;;;6029375;23;20797;-47
2023/05/06 10:09:30;;;;;;;1.60;0.90;;;17.90;80.10;;;;;;6004988;23;20411;-47
2023/05/06 10:12:01;;;;;;;2.83;1.40;;;17.90;79.50;;;;;;6026260;23;20448;-46
2023/05/06 10:14:29;;;;;;;2.93;0.90;;;18.00;78.90;;;;;;6052708;23;20465;-47
2023/05/06 10:16:58;;;;;;;2.97;1.07;;;18.00;78.70;;;;;;6028315;23;20512;-47
2023/05/06 10:19:28;;;;;;;1.90;0.97;;;18.00;78.60;;;;;;6031037;23;20789;-46
2023/05/06 10:22:03;;;;;;;1.63;1.17;;;18.00;78.60;;;;;;6028702;23;20412;-46
2023/05/06 10:29:03;;;;;;;2.40;1.40;;;18.00;78.80;;;;;;6027543;23;20550;-47
2023/05/06 10:31:34;;;;;;;2.10;0.80;;;18.00;79.10;;;;;;6026891;23;20428;-46
2023/05/06 10:34:07;;;;;;;3.43;1.30;;;17.90;79.10;;;;;;6049989;23;20473;-47
2023/05/06 10:36:39;;;;;;;1.80;1.30;;;17.90;79.20;;;;;;6025357;23;20508;-46
2023/05/06 10:39:12;;;;;;;1.80;1.00;;;17.90;79.50;;;;;;6025536;23;20752;-45
2023/05/06 10:41:41;;;;;;;4.13;1.60;;;17.90;79.60;;;;;;6029064;23;20437;-46
2023/05/06 10:44:10;;;;;;;2.23;1.10;;;17.90;79.70;;;;;;6029687;23;20853;-48
2023/05/06 10:46:57;;;;;;;2.53;0.97;;;17.90;79.80;;;;;;6004598;23;20446;-47
2023/05/06 10:49:26;;;;;;;3.90;0.97;;;17.90;79.90;;;;;;6028335;23;20425;-46
2023/05/06 10:52:13;;;;;;;3.00;1.07;;;17.90;79.80;;;;;;6028598;23;20417;-46
2023/05/06 10:54:50;;;;;;;2.77;1.10;;;17.90;79.90;;;;;;6030806;23;20390;-48
2023/05/06 10:57:19;;;;;;;1.80;1.13;;;17.90;79.80;;;;;;6029019;23;20968;-47
2023/05/06 10:59:49;;;;;;;1.40;0.83;;;17.90;80.00;;;;;;6030541;23;20416;-47
2023/05/06 11:02:20;;;;;;;2.07;1.30;;;17.80;80.00;;;;;;6029285;23;20949;-48
2023/05/06 11:04:59;;;;;;;3.67;1.40;;;17.80;80.00;;;;;;6030215;23;20382;-47
2023/05/06 11:07:32;;;;;;;3.43;1.03;;;17.80;80.10;;;;;;6029943;23;20780;-46
2023/05/06 11:10:04;;;;;;;1.60;0.97;;;17.80;80.20;;;;;;6029524;23;20398;-47
2023/05/06 11:12:48;;;;;;;2.10;1.17;;;17.80;80.20;;;;;;6030541;23;20492;-47
2023/05/06 11:15:24;;;;;;;6.63;1.37;;;17.80;80.30;;;;;;6033045;23;20475;-47
2023/05/06 11:17:55;;;;;;;2.80;0.90;;;17.80;80.30;;;;;;6028466;23;20777;-48
2023/05/06 11:20:26;;;;;;;2.03;1.20;;;17.80;80.30;;;;;;6028507;23;20449;-47
2023/05/06 11:22:56;;;;;;;2.10;0.87;;;17.80;80.40;;;;;;6027514;23;20450;-48
2023/05/06 11:25:41;;;;;;;1.40;0.90;;;17.80;80.40;;;;;;6029634;23;20430;-47
2023/05/06 11:28:11;;;;;;;3.40;0.90;;;17.80;80.40;;;;;;6029463;23;20484;-46
2023/05/06 11:30:41;;;;;;;1.33;0.80;;;17.80;80.40;;;;;;6029490;23;20861;-47
2023/05/06 11:33:18;;;;;;;2.30;0.93;;;17.80;80.40;;;;;;6028692;23;20446;-47
2023/05/06 11:35:48;;;;;;;1.70;1.13;;;17.80;80.40;;;;;;6029574;23;20409;-46
2023/05/06 11:38:18;;;;;;;1.60;1.00;;;17.80;80.50;;;;;;6029250;23;20921;-47
2023/05/06 11:40:49;;;;;;;1.63;0.80;;;17.90;80.40;;;;;;6027191;23;20393;-46
2023/05/06 11:43:17;;;;;;;1.70;0.97;;;17.90;80.50;;;;;;6027174;23;20445;-47
2023/05/06 11:45:49;;;;;;;1.87;0.90;;;17.90;80.50;;;;;;6026727;23;20433;-48
2023/05/06 11:48:18;;;;;;;5.80;1.37;;;17.90;80.40;;;;;;6023851;23;20453;-47
2023/05/06 11:50:48;;;;;;;3.00;1.07;;;18.00;79.90;;;;;;6024634;23;20394;-46
2023/05/06 11:53:20;;;;;;;4.50;1.57;;;18.10;79.40;;;;;;6047123;23;20469;-47
2023/05/06 11:55:49;;;;;;;4.30;1.37;;;18.10;79.10;;;;;;6000057;23;20971;-46
2023/05/06 11:58:20;;;;;;;3.90;1.50;;;18.10;79.10;;;;;;6024675;23;20681;-47
2023/05/06 12:00:50;;;;;;;4.90;1.00;;;18.10;79.10;;;;;;6028139;23;20426;-47
2023/05/06 12:03:19;;;;;;;3.93;1.23;;;18.10;79.30;;;;;;6026920;23;20442;-47
2023/05/06 12:05:48;;;;;;;7.83;1.20;;;18.10;79.50;;;;;;6030311;23;20418;-46
2023/05/06 12:08:22;;;;;;;3.40;1.10;;;18.00;79.60;;;;;;6029294;23;20570;-47
2023/05/06 12:10:59;;;;;;;3.43;1.17;;;18.00;79.80;;;;;;6028335;23;20385;-45
2023/05/06 12:13:28;;;;;;;2.03;1.00;;;18.00;79.90;;;;;;6030230;23;20734;-47
2023/05/06 12:15:58;;;;;;;2.83;1.03;;;18.00;79.90;;;;;;6028883;23;20908;-47
2023/05/06 12:18:34;;;;;;;4.27;1.10;;;18.00;80.00;;;;;;6029353;23;20448;-47
2023/05/06 12:21:03;;;;;;;2.97;1.30;;;17.90;80.00;;;;;;6030670;23;20377;-48
2023/05/06 12:23:33;;;;;;;2.53;0.97;;;18.00;80.10;;;;;;6005255;23;20448;-46
2023/05/06 12:26:03;;;;;;;1.93;0.93;;;17.90;80.10;;;;;;6052579;23;20929;-47
2023/05/06 12:28:32;;;;;;;3.30;1.13;;;17.90;80.20;;;;;;6029318;23;20412;-45
2023/05/06 12:31:01;;;;;;;2.47;1.80;;;17.90;80.20;;;;;;6052396;23;20467;-47
2023/05/06 12:33:44;;;;;;;2.37;1.00;;;17.90;80.30;;;;;;6029373;23;20477;-47
2023/05/06 12:36:13;;;;;;;2.00;1.00;;;17.90;80.40;;;;;;6030071;23;20418;-47
2023/05/06 12:38:52;;;;;;;2.90;1.10;;;17.90;80.40;;;;;;6028275;23;20893;-47
2023/05/06 12:41:21;;;;;;;1.60;1.10;;;17.90;80.50;;;;;;6028286;23;20900;-46
2023/05/06 12:43:52;;;;;;;3.33;0.83;;;17.90;80.50;;;;;;6028208;23;20481;-47
2023/05/06 12:46:22;;;;;;;2.03;0.90;;;17.90;80.50;;;;;;6030185;23;20928;-48
2023/05/06 12:49:00;;;;;;;2.73;1.00;;;17.90;80.60;;;;;;6029578;23;20421;-50
2023/05/06 12:51:31;;;;;;;2.60;1.20;;;17.90;81.70;;;;;;6027971;23;20516;-48
2023/05/06 12:54:00;;;;;;;2.70;0.93;;;17.90;81.50;;;;;;6028723;23;20386;-49
2023/05/06 12:56:29;;;;;;;2.27;1.17;;;17.90;81.20;;;;;;6028810;23;20452;-49
2023/05/06 12:59:03;;;;;;;2.03;0.90;;;17.90;81.20;;;;;;6028847;23;20485;-48
2023/05/06 13:01:32;;;;;;;1.63;1.07;;;17.90;81.30;;;;;;6027623;23;20686;-48
2023/05/06 13:04:00;;;;;;;1.87;0.70;;;17.90;81.30;;;;;;6029350;23;20410;-50
2023/05/06 13:06:30;;;;;;;2.93;1.00;;;18.00;81.40;;;;;;6028805;23;20418;-49
2023/05/06 13:09:01;;;;;;;4.80;1.63;;;18.00;81.30;;;;;;6028040;23;20480;-49
2023/05/06 13:11:29;;;;;;;2.73;1.40;;;17.90;81.40;;;;;;6026236;23;21244;-48
2023/05/06 13:13:58;;;;;;;2.33;1.00;;;17.90;81.50;;;;;;6029109;23;20398;-48